sensor_id;sensor_type;location;lat;lon;timestamp;pressure;altitude;pressure_sealevel;temperature;humidity
34241;BME280;20503;50.200;19.508;2024-01-11T00:00:02;102351.23;;;-2.78;47.43
34241;BME280;20503;50.200;19.508;2024-01-11T00:01:09;102350.37;;;-2.77;48.14
34241;BME280;20503;50.200;19.508;2024-01-11T00:02:15;102344.29;;;-3.08;49.26
34241;BME280;20503;50.200;19.508;2024-01-11T00:03:18;102343.41;;;-3.15;50.28
34241;BME280;20503;50.200;19.508;2024-01-11T00:04:20;102332.72;;;-2.78;49.39
34241;BME280;20503;50.200;19.508;2024-01-11T00:05:21;102341.55;;;-2.79;49.21
34241;BME280;20503;50.200;19.508;2024-01-11T00:06:22;102346.69;;;-2.45;48.37
34241;BME280;20503;50.200;19.508;2024-01-11T00:07:24;102340.75;;;-3.04;49.04
34241;BME280;20503;50.200;19.508;2024-01-11T00:08:25;102343.23;;;-2.57;48.69
34241;BME280;20503;50.200;19.508;2024-01-11T00:09:26;102344.01;;;-2.36;48.13
34241;BME280;20503;50.200;19.508;2024-01-11T00:10:27;102338.92;;;-2.87;49.27
34241;BME280;20503;50.200;19.508;2024-01-11T00:11:29;102335.32;;;-2.61;49.25
34241;BME280;20503;50.200;19.508;2024-01-11T00:12:30;102331.52;;;-2.13;47.92
34241;BME280;20503;50.200;19.508;2024-01-11T00:13:32;102337.70;;;-2.12;47.50
34241;BME280;20503;50.200;19.508;2024-01-11T00:14:35;102333.30;;;-2.16;47.66
34241;BME280;20503;50.200;19.508;2024-01-11T00:15:36;102333.17;;;-1.98;47.08
34241;BME280;20503;50.200;19.508;2024-01-11T00:16:46;102346.45;;;-2.03;47.13
34241;BME280;20503;50.200;19.508;2024-01-11T00:17:48;102335.76;;;-1.87;46.45
34241;BME280;20503;50.200;19.508;2024-01-11T00:19:12;102344.85;;;-2.28;47.68
34241;BME280;20503;50.200;19.508;2024-01-11T00:20:14;102333.52;;;-2.53;48.67
34241;BME280;20503;50.200;19.508;2024-01-11T00:21:15;102342.31;;;-2.54;48.30
34241;BME280;20503;50.200;19.508;2024-01-11T00:22:16;102336.40;;;-3.31;50.10
34241;BME280;20503;50.200;19.508;2024-01-11T00:23:18;102321.32;;;-2.89;49.67
34241;BME280;20503;50.200;19.508;2024-01-11T00:24:19;102328.22;;;-2.58;49.11
34241;BME280;20503;50.200;19.508;2024-01-11T00:25:42;102333.61;;;-2.82;49.19
34241;BME280;20503;50.200;19.508;2024-01-11T00:26:43;102328.13;;;-2.39;48.28
34241;BME280;20503;50.200;19.508;2024-01-11T00:28:11;102332.51;;;-2.34;48.09
34241;BME280;20503;50.200;19.508;2024-01-11T00:29:12;102317.46;;;-2.26;47.90
34241;BME280;20503;50.200;19.508;2024-01-11T00:30:13;102316.45;;;-2.06;47.32
34241;BME280;20503;50.200;19.508;2024-01-11T00:31:16;102322.54;;;-1.93;47.00
34241;BME280;20503;50.200;19.508;2024-01-11T00:32:39;102328.00;;;-2.18;47.67
34241;BME280;20503;50.200;19.508;2024-01-11T00:33:41;102315.70;;;-2.24;47.83
34241;BME280;20503;50.200;19.508;2024-01-11T00:34:43;102311.17;;;-2.09;47.41
34241;BME280;20503;50.200;19.508;2024-01-11T00:35:44;102314.00;;;-2.35;48.27
34241;BME280;20503;50.200;19.508;2024-01-11T00:36:56;102321.13;;;-2.51;48.08
34241;BME280;20503;50.200;19.508;2024-01-11T00:37:58;102306.02;;;-2.28;47.51
34241;BME280;20503;50.200;19.508;2024-01-11T00:38:59;102308.60;;;-2.21;47.48
34241;BME280;20503;50.200;19.508;2024-01-11T00:40:06;102321.13;;;-2.48;48.20
34241;BME280;20503;50.200;19.508;2024-01-11T00:41:07;102307.88;;;-2.50;48.41
34241;BME280;20503;50.200;19.508;2024-01-11T00:42:09;102298.21;;;-2.49;48.35
34241;BME280;20503;50.200;19.508;2024-01-11T00:43:26;102317.56;;;-2.45;48.42
34241;BME280;20503;50.200;19.508;2024-01-11T00:44:27;102297.34;;;-2.53;48.18
34241;BME280;20503;50.200;19.508;2024-01-11T00:45:28;102302.53;;;-2.36;48.38
34241;BME280;20503;50.200;19.508;2024-01-11T00:46:29;102299.78;;;-2.22;47.62
34241;BME280;20503;50.200;19.508;2024-01-11T00:47:31;102296.18;;;-2.10;47.53
34241;BME280;20503;50.200;19.508;2024-01-11T00:48:32;102291.94;;;-2.37;48.27
34241;BME280;20503;50.200;19.508;2024-01-11T00:49:44;102295.44;;;-2.31;48.16
34241;BME280;20503;50.200;19.508;2024-01-11T00:50:46;102282.27;;;-2.40;48.28
34241;BME280;20503;50.200;19.508;2024-01-11T00:51:47;102279.66;;;-2.47;48.76
34241;BME280;20503;50.200;19.508;2024-01-11T00:53:12;102295.27;;;-2.06;47.80
34241;BME280;20503;50.200;19.508;2024-01-11T00:54:15;102292.48;;;-1.89;47.41
34241;BME280;20503;50.200;19.508;2024-01-11T00:55:16;102288.00;;;-1.81;47.25
34241;BME280;20503;50.200;19.508;2024-01-11T00:56:19;102294.16;;;-1.76;46.71
34241;BME280;20503;50.200;19.508;2024-01-11T00:57:21;102298.65;;;-1.86;46.97
34241;BME280;20503;50.200;19.508;2024-01-11T00:58:22;102285.51;;;-1.96;47.03
34241;BME280;20503;50.200;19.508;2024-01-11T00:59:24;102283.62;;;-1.85;46.73
34241;BME280;20503;50.200;19.508;2024-01-11T01:00:37;102296.19;;;-2.09;47.46
34241;BME280;20503;50.200;19.508;2024-01-11T01:01:38;102286.43;;;-2.04;47.59
34241;BME280;20503;50.200;19.508;2024-01-11T01:02:40;102294.34;;;-1.99;46.90
34241;BME280;20503;50.200;19.508;2024-01-11T01:03:41;102289.26;;;-2.28;47.95
34241;BME280;20503;50.200;19.508;2024-01-11T01:04:43;102289.30;;;-2.37;47.73
34241;BME280;20503;50.200;19.508;2024-01-11T01:05:44;102280.33;;;-2.15;47.62
34241;BME280;20503;50.200;19.508;2024-01-11T01:06:47;102289.08;;;-2.04;47.51
34241;BME280;20503;50.200;19.508;2024-01-11T01:07:57;102297.84;;;-1.95;46.98
34241;BME280;20503;50.200;19.508;2024-01-11T01:08:58;102295.23;;;-2.02;46.90
34241;BME280;20503;50.200;19.508;2024-01-11T01:09:59;102297.80;;;-1.91;46.71
34241;BME280;20503;50.200;19.508;2024-01-11T01:11:01;102289.93;;;-2.02;47.28
34241;BME280;20503;50.200;19.508;2024-01-11T01:12:29;102304.16;;;-2.15;47.00
34241;BME280;20503;50.200;19.508;2024-01-11T01:13:57;102305.95;;;-2.17;47.27
34241;BME280;20503;50.200;19.508;2024-01-11T01:14:58;102289.10;;;-2.07;47.12
34241;BME280;20503;50.200;19.508;2024-01-11T01:15:59;102295.30;;;-2.08;46.87
34241;BME280;20503;50.200;19.508;2024-01-11T01:17:02;102292.50;;;-1.88;46.26
34241;BME280;20503;50.200;19.508;2024-01-11T01:18:03;102283.65;;;-1.87;46.00
34241;BME280;20503;50.200;19.508;2024-01-11T01:19:05;102294.29;;;-1.91;46.00
34241;BME280;20503;50.200;19.508;2024-01-11T01:20:07;102285.63;;;-2.18;46.76
34241;BME280;20503;50.200;19.508;2024-01-11T01:21:09;102284.92;;;-2.40;47.00
34241;BME280;20503;50.200;19.508;2024-01-11T01:22:10;102290.20;;;-2.41;47.14
34241;BME280;20503;50.200;19.508;2024-01-11T01:23:12;102290.16;;;-2.35;46.51
34241;BME280;20503;50.200;19.508;2024-01-11T01:24:32;102286.63;;;-2.34;46.74
34241;BME280;20503;50.200;19.508;2024-01-11T01:25:34;102286.64;;;-2.33;46.85
34241;BME280;20503;50.200;19.508;2024-01-11T01:26:35;102281.68;;;-3.00;48.52
34241;BME280;20503;50.200;19.508;2024-01-11T01:27:36;102291.41;;;-3.14;49.40
34241;BME280;20503;50.200;19.508;2024-01-11T01:28:38;102294.91;;;-2.97;49.30
34241;BME280;20503;50.200;19.508;2024-01-11T01:29:41;102294.96;;;-3.17;49.39
34241;BME280;20503;50.200;19.508;2024-01-11T01:30:42;102297.53;;;-3.02;49.29
34241;BME280;20503;50.200;19.508;2024-01-11T01:31:43;102295.78;;;-3.06;49.47
34241;BME280;20503;50.200;19.508;2024-01-11T01:32:44;102287.89;;;-3.15;49.67
34241;BME280;20503;50.200;19.508;2024-01-11T01:33:45;102281.68;;;-3.00;48.78
34241;BME280;20503;50.200;19.508;2024-01-11T01:34:47;102286.90;;;-2.83;48.80
34241;BME280;20503;50.200;19.508;2024-01-11T01:35:48;102282.50;;;-2.84;49.05
34241;BME280;20503;50.200;19.508;2024-01-11T01:36:49;102279.05;;;-3.06;49.70
34241;BME280;20503;50.200;19.508;2024-01-11T01:37:51;102278.02;;;-2.68;48.34
34241;BME280;20503;50.200;19.508;2024-01-11T01:38:52;102285.09;;;-2.78;48.57
34241;BME280;20503;50.200;19.508;2024-01-11T01:39:53;102275.37;;;-2.68;48.20
34241;BME280;20503;50.200;19.508;2024-01-11T01:40:55;102277.88;;;-2.44;47.85
34241;BME280;20503;50.200;19.508;2024-01-11T01:41:57;102276.88;;;-2.29;47.55
34241;BME280;20503;50.200;19.508;2024-01-11T01:42:59;102269.84;;;-2.30;46.97
34241;BME280;20503;50.200;19.508;2024-01-11T01:44:04;102276.31;;;-2.80;48.20
34241;BME280;20503;50.200;19.508;2024-01-11T01:45:07;102269.22;;;-2.72;48.49
34241;BME280;20503;50.200;19.508;2024-01-11T01:46:08;102268.98;;;-2.32;47.67
34241;BME280;20503;50.200;19.508;2024-01-11T01:47:10;102265.32;;;-2.14;47.12
34241;BME280;20503;50.200;19.508;2024-01-11T01:48:12;102266.38;;;-2.37;47.77
34241;BME280;20503;50.200;19.508;2024-01-11T01:49:14;102270.08;;;-2.68;47.86
34241;BME280;20503;50.200;19.508;2024-01-11T01:50:35;102270.80;;;-2.42;47.57
34241;BME280;20503;50.200;19.508;2024-01-11T01:51:37;102267.16;;;-2.24;47.09
34241;BME280;20503;50.200;19.508;2024-01-11T01:52:40;102270.02;;;-2.59;47.58
34241;BME280;20503;50.200;19.508;2024-01-11T01:53:45;102271.66;;;-2.37;47.72
34241;BME280;20503;50.200;19.508;2024-01-11T01:54:48;102268.05;;;-2.27;47.33
34241;BME280;20503;50.200;19.508;2024-01-11T01:55:52;102270.55;;;-2.07;46.54
34241;BME280;20503;50.200;19.508;2024-01-11T01:56:54;102271.59;;;-2.29;46.78
34241;BME280;20503;50.200;19.508;2024-01-11T01:58:23;102264.66;;;-2.47;47.23
34241;BME280;20503;50.200;19.508;2024-01-11T01:59:26;102264.62;;;-2.39;47.27
34241;BME280;20503;50.200;19.508;2024-01-11T02:00:29;102262.81;;;-2.34;46.90
34241;BME280;20503;50.200;19.508;2024-01-11T02:01:30;102261.00;;;-2.29;46.99
34241;BME280;20503;50.200;19.508;2024-01-11T02:02:34;102264.41;;;-2.10;46.26
34241;BME280;20503;50.200;19.508;2024-01-11T02:03:36;102262.68;;;-2.17;46.22
34241;BME280;20503;50.200;19.508;2024-01-11T02:04:38;102261.04;;;-2.32;46.92
34241;BME280;20503;50.200;19.508;2024-01-11T02:05:39;102264.52;;;-2.27;46.63
34241;BME280;20503;50.200;19.508;2024-01-11T02:06:41;102258.29;;;-2.17;46.29
34241;BME280;20503;50.200;19.508;2024-01-11T02:07:44;102262.62;;;-2.10;46.46
34241;BME280;20503;50.200;19.508;2024-01-11T02:08:46;102258.30;;;-2.20;46.73
34241;BME280;20503;50.200;19.508;2024-01-11T02:09:49;102262.73;;;-2.20;46.45
34241;BME280;20503;50.200;19.508;2024-01-11T02:11:11;102255.70;;;-2.25;46.76
34241;BME280;20503;50.200;19.508;2024-01-11T02:12:20;102256.54;;;-2.19;46.84
34241;BME280;20503;50.200;19.508;2024-01-11T02:13:22;102251.31;;;-2.29;46.57
34241;BME280;20503;50.200;19.508;2024-01-11T02:14:23;102257.38;;;-2.17;46.66
34241;BME280;20503;50.200;19.508;2024-01-11T02:15:38;102251.16;;;-2.09;46.39
34241;BME280;20503;50.200;19.508;2024-01-11T02:16:40;102254.08;;;-2.47;47.30
34241;BME280;20503;50.200;19.508;2024-01-11T02:17:41;102244.35;;;-2.43;47.04
34241;BME280;20503;50.200;19.508;2024-01-11T02:18:43;102259.20;;;-2.21;46.72
34241;BME280;20503;50.200;19.508;2024-01-11T02:19:46;102257.49;;;-2.31;46.38
34241;BME280;20503;50.200;19.508;2024-01-11T02:20:47;102255.77;;;-2.35;46.87
34241;BME280;20503;50.200;19.508;2024-01-11T02:21:51;102253.02;;;-2.20;46.95
34241;BME280;20503;50.200;19.508;2024-01-11T02:22:58;102243.14;;;-2.00;46.09
34241;BME280;20503;50.200;19.508;2024-01-11T02:24:06;102241.23;;;-1.85;45.56
34241;BME280;20503;50.200;19.508;2024-01-11T02:25:08;102242.22;;;-1.95;45.41
34241;BME280;20503;50.200;19.508;2024-01-11T02:26:10;102238.84;;;-2.13;46.00
34241;BME280;20503;50.200;19.508;2024-01-11T02:27:11;102245.15;;;-2.34;46.62
34241;BME280;20503;50.200;19.508;2024-01-11T02:28:12;102247.00;;;-2.43;47.14
34241;BME280;20503;50.200;19.508;2024-01-11T02:29:13;102241.55;;;-2.20;46.57
34241;BME280;20503;50.200;19.508;2024-01-11T02:30:16;102238.10;;;-2.35;46.91
34241;BME280;20503;50.200;19.508;2024-01-11T02:31:18;102241.45;;;-2.10;46.28
34241;BME280;20503;50.200;19.508;2024-01-11T02:32:19;102230.02;;;-2.15;46.33
34241;BME280;20503;50.200;19.508;2024-01-11T02:33:22;102236.12;;;-2.04;46.11
34241;BME280;20503;50.200;19.508;2024-01-11T02:34:24;102228.25;;;-2.14;46.00
34241;BME280;20503;50.200;19.508;2024-01-11T02:35:26;102228.34;;;-2.24;46.86
34241;BME280;20503;50.200;19.508;2024-01-11T02:36:28;102231.86;;;-2.26;46.44
34241;BME280;20503;50.200;19.508;2024-01-11T02:37:30;102232.99;;;-2.61;47.12
34241;BME280;20503;50.200;19.508;2024-01-11T02:38:33;102237.32;;;-2.51;47.28
34241;BME280;20503;50.200;19.508;2024-01-11T02:39:35;102231.93;;;-2.32;46.46
34241;BME280;20503;50.200;19.508;2024-01-11T02:40:38;102233.79;;;-2.45;46.57
34241;BME280;20503;50.200;19.508;2024-01-11T02:41:39;102234.70;;;-2.51;47.22
34241;BME280;20503;50.200;19.508;2024-01-11T02:42:41;102240.72;;;-2.30;46.54
34241;BME280;20503;50.200;19.508;2024-01-11T02:43:47;102230.10;;;-2.24;46.38
34241;BME280;20503;50.200;19.508;2024-01-11T02:44:49;102227.52;;;-2.35;46.34
34241;BME280;20503;50.200;19.508;2024-01-11T02:45:54;102224.01;;;-2.35;46.62
34241;BME280;20503;50.200;19.508;2024-01-11T02:47:15;102240.25;;;-3.00;47.74
34241;BME280;20503;50.200;19.508;2024-01-11T02:49:48;102240.82;;;-2.41;46.95
34241;BME280;20503;50.200;19.508;2024-01-11T02:51:16;102244.36;;;-2.46;47.41
34241;BME280;20503;50.200;19.508;2024-01-11T02:52:17;102237.07;;;-2.12;46.26
34241;BME280;20503;50.200;19.508;2024-01-11T02:53:19;102241.49;;;-2.14;45.98
34241;BME280;20503;50.200;19.508;2024-01-11T02:54:21;102244.31;;;-2.39;46.99
34241;BME280;20503;50.200;19.508;2024-01-11T02:55:22;102242.65;;;-2.52;47.00
34241;BME280;20503;50.200;19.508;2024-01-11T02:56:23;102238.91;;;-2.24;46.48
34241;BME280;20503;50.200;19.508;2024-01-11T02:57:24;102233.07;;;-2.73;47.24
34241;BME280;20503;50.200;19.508;2024-01-11T02:58:26;102234.70;;;-2.52;47.39
34241;BME280;20503;50.200;19.508;2024-01-11T02:59:27;102234.61;;;-2.37;46.78
34241;BME280;20503;50.200;19.508;2024-01-11T03:00:29;102230.15;;;-2.33;46.63
34241;BME280;20503;50.200;19.508;2024-01-11T03:01:31;102234.53;;;-2.28;46.46
34241;BME280;20503;50.200;19.508;2024-01-11T03:02:33;102231.03;;;-2.31;46.50
34241;BME280;20503;50.200;19.508;2024-01-11T03:03:34;102235.36;;;-2.19;46.46
34241;BME280;20503;50.200;19.508;2024-01-11T03:04:36;102231.05;;;-2.37;46.60
34241;BME280;20503;50.200;19.508;2024-01-11T03:05:37;102223.07;;;-2.28;46.45
34241;BME280;20503;50.200;19.508;2024-01-11T03:06:50;102226.72;;;-2.44;46.84
34241;BME280;20503;50.200;19.508;2024-01-11T03:07:51;102221.37;;;-2.38;46.34
34241;BME280;20503;50.200;19.508;2024-01-11T03:08:53;102219.50;;;-2.26;45.92
34241;BME280;20503;50.200;19.508;2024-01-11T03:09:54;102200.16;;;-2.34;46.69
34241;BME280;20503;50.200;19.508;2024-01-11T03:10:55;102209.79;;;-2.24;46.27
34241;BME280;20503;50.200;19.508;2024-01-11T03:11:56;102212.27;;;-2.04;45.95
34241;BME280;20503;50.200;19.508;2024-01-11T03:12:58;102211.46;;;-2.12;45.72
34241;BME280;20503;50.200;19.508;2024-01-11T03:14:08;102215.12;;;-2.28;46.39
34241;BME280;20503;50.200;19.508;2024-01-11T03:15:09;102206.18;;;-2.15;46.26
34241;BME280;20503;50.200;19.508;2024-01-11T03:16:11;102198.20;;;-2.09;45.96
34241;BME280;20503;50.200;19.508;2024-01-11T03:17:12;102203.50;;;-2.09;45.62
34241;BME280;20503;50.200;19.508;2024-01-11T03:18:13;102204.62;;;-2.39;46.63
34241;BME280;20503;50.200;19.508;2024-01-11T03:19:17;102216.91;;;-2.32;46.39
34241;BME280;20503;50.200;19.508;2024-01-11T03:20:18;102200.19;;;-2.38;47.36
34241;BME280;20503;50.200;19.508;2024-01-11T03:21:25;102200.12;;;-2.28;46.66
34241;BME280;20503;50.200;19.508;2024-01-11T03:22:26;102209.07;;;-2.44;47.02
34241;BME280;20503;50.200;19.508;2024-01-11T03:23:28;102208.05;;;-2.25;46.80
34241;BME280;20503;50.200;19.508;2024-01-11T03:24:29;102202.77;;;-2.31;46.82
34241;BME280;20503;50.200;19.508;2024-01-11T03:25:30;102207.41;;;-2.57;47.21
34241;BME280;20503;50.200;19.508;2024-01-11T03:26:31;102202.80;;;-2.34;46.67
34241;BME280;20503;50.200;19.508;2024-01-11T03:27:33;102208.06;;;-2.28;46.53
34241;BME280;20503;50.200;19.508;2024-01-11T03:28:34;102209.79;;;-2.24;46.50
34241;BME280;20503;50.200;19.508;2024-01-11T03:29:36;102210.70;;;-2.25;46.47
34241;BME280;20503;50.200;19.508;2024-01-11T03:30:37;102210.73;;;-2.31;47.04
34241;BME280;20503;50.200;19.508;2024-01-11T03:31:38;102208.88;;;-2.19;46.21
34241;BME280;20503;50.200;19.508;2024-01-11T03:32:45;102205.34;;;-2.21;45.88
34241;BME280;20503;50.200;19.508;2024-01-11T03:33:46;102213.66;;;-2.74;47.35
34241;BME280;20503;50.200;19.508;2024-01-11T03:34:47;102194.28;;;-2.76;47.65
34241;BME280;20503;50.200;19.508;2024-01-11T03:35:55;102205.56;;;-2.47;47.21
34241;BME280;20503;50.200;19.508;2024-01-11T03:36:56;102190.48;;;-2.38;46.70
34241;BME280;20503;50.200;19.508;2024-01-11T03:38:04;102201.13;;;-2.47;46.79
34241;BME280;20503;50.200;19.508;2024-01-11T03:39:06;102187.98;;;-2.56;47.04
34241;BME280;20503;50.200;19.508;2024-01-11T03:40:07;102183.67;;;-2.74;47.27
34241;BME280;20503;50.200;19.508;2024-01-11T03:41:09;102189.73;;;-2.55;47.62
34241;BME280;20503;50.200;19.508;2024-01-11T03:42:11;102189.70;;;-2.49;47.14
34241;BME280;20503;50.200;19.508;2024-01-11T03:43:12;102182.59;;;-2.45;46.61
34241;BME280;20503;50.200;19.508;2024-01-11T03:44:13;102178.09;;;-2.31;46.51
34241;BME280;20503;50.200;19.508;2024-01-11T03:45:18;102174.46;;;-2.19;46.26
34241;BME280;20503;50.200;19.508;2024-01-11T03:46:22;102184.11;;;-2.14;46.27
34241;BME280;20503;50.200;19.508;2024-01-11T03:47:24;102188.55;;;-2.17;46.44
34241;BME280;20503;50.200;19.508;2024-01-11T03:48:27;102186.80;;;-2.18;46.16
34241;BME280;20503;50.200;19.508;2024-01-11T03:49:28;102189.57;;;-2.32;46.10
34241;BME280;20503;50.200;19.508;2024-01-11T03:50:29;102179.73;;;-2.16;46.02
34241;BME280;20503;50.200;19.508;2024-01-11T03:51:31;102183.34;;;-2.25;45.75
34241;BME280;20503;50.200;19.508;2024-01-11T03:52:32;102185.24;;;-2.44;46.87
34241;BME280;20503;50.200;19.508;2024-01-11T03:53:36;102195.06;;;-2.60;46.96
34241;BME280;20503;50.200;19.508;2024-01-11T03:54:38;102185.24;;;-2.45;46.45
34241;BME280;20503;50.200;19.508;2024-01-11T03:55:39;102190.54;;;-2.44;46.80
34241;BME280;20503;50.200;19.508;2024-01-11T03:56:40;102186.29;;;-2.69;47.51
34241;BME280;20503;50.200;19.508;2024-01-11T03:57:41;102185.41;;;-2.70;47.44
34241;BME280;20503;50.200;19.508;2024-01-11T03:58:45;102188.88;;;-2.57;46.93
34241;BME280;20503;50.200;19.508;2024-01-11T03:59:46;102184.46;;;-2.57;47.04
34241;BME280;20503;50.200;19.508;2024-01-11T04:00:48;102179.23;;;-2.67;47.09
34241;BME280;20503;50.200;19.508;2024-01-11T04:01:49;102176.83;;;-3.10;47.21
34241;BME280;20503;50.200;19.508;2024-01-11T04:02:51;102178.55;;;-3.03;48.23
34241;BME280;20503;50.200;19.508;2024-01-11T04:03:52;102184.59;;;-2.77;48.01
34241;BME280;20503;50.200;19.508;2024-01-11T04:04:54;102181.82;;;-2.57;47.14
34241;BME280;20503;50.200;19.508;2024-01-11T04:05:55;102180.04;;;-2.58;46.65
34241;BME280;20503;50.200;19.508;2024-01-11T04:07:02;102193.34;;;-2.67;46.85
34241;BME280;20503;50.200;19.508;2024-01-11T04:08:06;102185.33;;;-2.53;46.78
34241;BME280;20503;50.200;19.508;2024-01-11T04:09:08;102178.22;;;-2.48;46.47
34241;BME280;20503;50.200;19.508;2024-01-11T04:10:10;102173.11;;;-2.72;46.75
34241;BME280;20503;50.200;19.508;2024-01-11T04:11:11;102174.79;;;-2.62;46.57
34241;BME280;20503;50.200;19.508;2024-01-11T04:12:13;102165.86;;;-2.47;46.35
34241;BME280;20503;50.200;19.508;2024-01-11T04:13:14;102170.27;;;-2.45;45.73
34241;BME280;20503;50.200;19.508;2024-01-11T04:14:16;102171.91;;;-2.33;45.66
34241;BME280;20503;50.200;19.508;2024-01-11T04:15:17;102164.15;;;-2.55;46.02
34241;BME280;20503;50.200;19.508;2024-01-11T04:16:18;102166.13;;;-2.84;46.98
34241;BME280;20503;50.200;19.508;2024-01-11T04:17:20;102171.45;;;-2.89;47.59
34241;BME280;20503;50.200;19.508;2024-01-11T04:18:21;102169.58;;;-2.75;46.82
34241;BME280;20503;50.200;19.508;2024-01-11T04:19:22;102172.41;;;-3.07;47.94
34241;BME280;20503;50.200;19.508;2024-01-11T04:20:24;102167.97;;;-3.02;47.44
34241;BME280;20503;50.200;19.508;2024-01-11T04:21:27;102182.91;;;-2.94;47.46
34241;BME280;20503;50.200;19.508;2024-01-11T04:22:32;102182.27;;;-3.41;48.11
34241;BME280;20503;50.200;19.508;2024-01-11T04:23:33;102175.11;;;-3.16;47.76
34241;BME280;20503;50.200;19.508;2024-01-11T04:24:36;102169.83;;;-3.19;47.90
34241;BME280;20503;50.200;19.508;2024-01-11T04:25:37;102173.27;;;-3.03;47.64
34241;BME280;20503;50.200;19.508;2024-01-11T04:26:38;102169.66;;;-2.85;46.97
34241;BME280;20503;50.200;19.508;2024-01-11T04:27:58;102180.25;;;-2.88;46.71
34241;BME280;20503;50.200;19.508;2024-01-11T04:28:59;102174.13;;;-2.96;46.66
34241;BME280;20503;50.200;19.508;2024-01-11T04:30:01;102180.09;;;-2.64;46.03
34241;BME280;20503;50.200;19.508;2024-01-11T04:31:27;102181.60;;;-2.31;45.27
34241;BME280;20503;50.200;19.508;2024-01-11T04:32:28;102181.63;;;-2.32;45.12
34241;BME280;20503;50.200;19.508;2024-01-11T04:33:29;102175.45;;;-2.34;45.01
34241;BME280;20503;50.200;19.508;2024-01-11T04:34:31;102180.81;;;-2.40;44.91
34241;BME280;20503;50.200;19.508;2024-01-11T04:35:32;102173.68;;;-2.34;44.89
34241;BME280;20503;50.200;19.508;2024-01-11T04:36:33;102167.62;;;-2.50;44.90
34241;BME280;20503;50.200;19.508;2024-01-11T04:37:35;102175.65;;;-2.57;45.64
34241;BME280;20503;50.200;19.508;2024-01-11T04:38:37;102165.00;;;-2.48;45.50
34241;BME280;20503;50.200;19.508;2024-01-11T04:39:46;102180.17;;;-2.78;45.55
34241;BME280;20503;50.200;19.508;2024-01-11T04:40:48;102162.68;;;-3.00;46.20
34241;BME280;20503;50.200;19.508;2024-01-11T04:41:50;102167.05;;;-2.94;45.82
34241;BME280;20503;50.200;19.508;2024-01-11T04:42:51;102169.71;;;-2.98;46.20
34241;BME280;20503;50.200;19.508;2024-01-11T04:43:53;102168.84;;;-2.96;46.20
34241;BME280;20503;50.200;19.508;2024-01-11T04:45:04;102182.81;;;-2.73;45.79
34241;BME280;20503;50.200;19.508;2024-01-11T04:46:19;102186.23;;;-2.57;45.37
34241;BME280;20503;50.200;19.508;2024-01-11T04:47:20;102164.96;;;-2.46;44.79
34241;BME280;20503;50.200;19.508;2024-01-11T04:48:21;102161.41;;;-2.45;44.57
34241;BME280;20503;50.200;19.508;2024-01-11T04:49:23;102160.55;;;-2.46;44.72
34241;BME280;20503;50.200;19.508;2024-01-11T04:50:25;102156.23;;;-2.58;44.82
34241;BME280;20503;50.200;19.508;2024-01-11T04:51:26;102158.05;;;-2.61;44.73
34241;BME280;20503;50.200;19.508;2024-01-11T04:52:27;102149.45;;;-2.99;45.50
34241;BME280;20503;50.200;19.508;2024-01-11T04:53:28;102149.46;;;-3.02;45.65
34241;BME280;20503;50.200;19.508;2024-01-11T04:54:30;102148.59;;;-3.04;45.68
34241;BME280;20503;50.200;19.508;2024-01-11T04:55:31;102162.16;;;-4.00;47.92
34241;BME280;20503;50.200;19.508;2024-01-11T04:56:32;102157.64;;;-3.55;47.42
34241;BME280;20503;50.200;19.508;2024-01-11T04:57:33;102155.80;;;-3.38;46.83
34241;BME280;20503;50.200;19.508;2024-01-11T04:58:35;102156.83;;;-3.79;47.93
34241;BME280;20503;50.200;19.508;2024-01-11T05:00:05;102163.83;;;-3.56;47.52
34241;BME280;20503;50.200;19.508;2024-01-11T05:01:12;102151.43;;;-3.37;47.27
34241;BME280;20503;50.200;19.508;2024-01-11T05:02:14;102154.03;;;-3.31;46.96
34241;BME280;20503;50.200;19.508;2024-01-11T05:03:15;102146.97;;;-3.28;47.19
34241;BME280;20503;50.200;19.508;2024-01-11T05:04:17;102151.28;;;-3.11;46.91
34241;BME280;20503;50.200;19.508;2024-01-11T05:05:18;102151.20;;;-2.96;46.81
34241;BME280;20503;50.200;19.508;2024-01-11T05:06:21;102148.47;;;-2.81;46.35
34241;BME280;20503;50.200;19.508;2024-01-11T05:07:22;102145.02;;;-2.95;45.87
34241;BME280;20503;50.200;19.508;2024-01-11T05:08:25;102132.63;;;-2.85;46.23
34241;BME280;20503;50.200;19.508;2024-01-11T05:09:27;102134.56;;;-3.15;46.78
34241;BME280;20503;50.200;19.508;2024-01-11T05:10:28;102130.30;;;-3.40;47.13
34241;BME280;20503;50.200;19.508;2024-01-11T05:11:29;102129.51;;;-3.61;47.55
34241;BME280;20503;50.200;19.508;2024-01-11T05:12:31;102125.94;;;-3.55;47.81
34241;BME280;20503;50.200;19.508;2024-01-11T05:13:32;102133.84;;;-3.51;47.92
34241;BME280;20503;50.200;19.508;2024-01-11T05:14:34;102117.92;;;-3.32;47.62
34241;BME280;20503;50.200;19.508;2024-01-11T05:15:35;102109.94;;;-3.23;47.28
34241;BME280;20503;50.200;19.508;2024-01-11T05:16:36;102119.55;;;-3.08;47.04
34241;BME280;20503;50.200;19.508;2024-01-11T05:17:38;102113.46;;;-3.24;47.32
34241;BME280;20503;50.200;19.508;2024-01-11T05:18:39;102109.09;;;-3.28;47.04
34241;BME280;20503;50.200;19.508;2024-01-11T05:19:41;102108.30;;;-3.50;47.83
34241;BME280;20503;50.200;19.508;2024-01-11T05:20:42;102109.15;;;-3.37;47.92
34241;BME280;20503;50.200;19.508;2024-01-11T05:21:43;102115.37;;;-3.52;48.01
34241;BME280;20503;50.200;19.508;2024-01-11T05:22:44;102114.39;;;-3.34;48.28
34241;BME280;20503;50.200;19.508;2024-01-11T05:23:46;102114.24;;;-3.10;47.45
34241;BME280;20503;50.200;19.508;2024-01-11T05:24:47;102106.32;;;-3.05;46.91
34241;BME280;20503;50.200;19.508;2024-01-11T05:25:48;102104.60;;;-3.15;47.44
34241;BME280;20503;50.200;19.508;2024-01-11T05:26:49;102101.13;;;-3.24;47.71
34241;BME280;20503;50.200;19.508;2024-01-11T05:27:51;102111.61;;;-3.05;47.26
34241;BME280;20503;50.200;19.508;2024-01-11T05:28:53;102118.57;;;-2.92;46.96